Time;durP1;ratioP1;P1;durP2;ratioP2;P2;SDS_P1;SDS_P2;PMS_P1;PMS_P2;Temp;Humidity;BMP_temperature;BMP_pressure;BME280_temperature;BME280_humidity;BME280_pressure;Samples;Min_cycle;Max_cycle;Signal;HPM_P1;HPM_P2
2023/05/07 00:02:21;;;;;;;20.03;16.90;;;10.60;99.90;;;;;;5073304;28;20205;-61
2023/05/07 00:04:47;;;;;;;21.77;17.67;;;10.60;99.90;;;;;;5073275;28;20443;-60
2023/05/07 00:07:14;;;;;;;20.70;16.67;;;10.50;99.90;;;;;;5072743;28;20941;-61
2023/05/07 00:09:41;;;;;;;21.50;16.23;;;10.50;99.90;;;;;;5073728;28;20467;-60
2023/05/07 00:12:09;;;;;;;19.50;16.90;;;10.50;99.90;;;;;;5073031;28;20458;-62
2023/05/07 00:14:36;;;;;;;24.00;16.67;;;10.40;99.90;;;;;;5072920;28;20933;-61
2023/05/07 00:17:03;;;;;;;21.55;15.68;;;10.40;99.90;;;;;;5073456;28;20212;-60
2023/05/07 00:19:29;;;;;;;21.93;17.27;;;10.40;99.90;;;;;;5073225;28;20221;-61
2023/05/07 00:21:56;;;;;;;20.20;16.77;;;10.30;99.90;;;;;;5073410;28;20447;-60
2023/05/07 00:24:23;;;;;;;21.40;16.20;;;10.40;99.90;;;;;;5073272;28;20197;-62
2023/05/07 00:26:50;;;;;;;22.45;17.27;;;10.40;99.90;;;;;;5074383;28;20197;-62
2023/05/07 00:29:18;;;;;;;22.37;16.13;;;10.30;99.90;;;;;;5077380;28;20224;-61
2023/05/07 00:31:45;;;;;;;23.08;19.00;;;10.30;99.90;;;;;;5076736;28;20955;-61
2023/05/07 00:34:12;;;;;;;22.90;17.55;;;10.30;99.90;;;;;;5077148;28;20201;-60
2023/05/07 00:36:39;;;;;;;30.15;19.60;;;10.30;99.90;;;;;;5076923;28;20221;-61
2023/05/07 00:39:06;;;;;;;22.90;16.90;;;10.30;99.90;;;;;;5076654;28;20602;-61
2023/05/07 00:41:33;;;;;;;25.10;18.25;;;10.30;99.90;;;;;;5076530;28;20927;-61
2023/05/07 00:44:02;;;;;;;23.17;15.53;;;10.30;99.90;;;;;;5077061;28;20200;-61
2023/05/07 00:46:31;;;;;;;18.75;16.33;;;10.30;99.90;;;;;;5076737;28;20448;-60
2023/05/07 00:48:59;;;;;;;23.33;16.90;;;10.30;99.90;;;;;;5076093;28;20255;-60
2023/05/07 00:51:27;;;;;;;23.60;18.67;;;10.30;99.90;;;;;;5076645;28;20845;-61
2023/05/07 00:53:54;;;;;;;26.55;19.15;;;10.30;99.90;;;;;;5077012;28;20263;-62
2023/05/07 00:56:22;;;;;;;22.33;17.23;;;10.20;99.90;;;;;;5076378;28;20227;-60
2023/05/07 00:58:49;;;;;;;25.55;17.73;;;10.20;99.90;;;;;;5076528;28;20252;-60
2023/05/07 01:01:16;;;;;;;21.23;16.37;;;10.20;99.90;;;;;;5076713;28;20205;-61
2023/05/07 01:03:44;;;;;;;23.30;18.42;;;10.20;99.90;;;;;;5076169;28;20998;-60
2023/05/07 01:06:13;;;;;;;21.77;17.20;;;10.20;99.90;;;;;;5076840;28;20201;-60
2023/05/07 01:08:40;;;;;;;23.05;18.95;;;10.20;99.90;;;;;;5076993;28;20525;-60
2023/05/07 01:11:08;;;;;;;28.75;18.13;;;10.10;99.90;;;;;;5076223;28;20250;-60
2023/05/07 01:13:35;;;;;;;25.33;18.53;;;10.10;99.90;;;;;;5076069;28;20212;-60
2023/05/07 01:16:03;;;;;;;23.10;17.50;;;10.10;99.90;;;;;;5076490;28;20446;-61
2023/05/07 01:18:30;;;;;;;24.00;17.23;;;10.10;99.90;;;;;;5076403;28;20221;-61
2023/05/07 01:21:00;;;;;;;24.65;18.20;;;10.10;99.90;;;;;;5076824;28;20447;-60
2023/05/07 01:23:28;;;;;;;26.95;19.15;;;10.10;99.90;;;;;;5076480;28;20205;-60
2023/05/07 01:25:55;;;;;;;29.50;19.17;;;10.10;99.90;;;;;;5076166;28;20231;-61
2023/05/07 01:28:22;;;;;;;25.43;19.37;;;10.10;99.90;;;;;;5076152;28;20221;-60
2023/05/07 01:30:53;;;;;;;23.02;18.02;;;10.10;99.90;;;;;;5076016;28;20443;-61
2023/05/07 01:33:22;;;;;;;25.17;18.73;;;10.20;99.90;;;;;;5075827;28;20674;-61
2023/05/07 01:35:52;;;;;;;28.00;19.42;;;10.10;99.90;;;;;;5075580;28;20582;-61
2023/05/07 01:38:19;;;;;;;25.77;18.88;;;10.10;99.90;;;;;;5076193;28;20232;-60
2023/05/07 01:40:48;;;;;;;24.48;18.70;;;10.10;99.90;;;;;;5076251;28;20228;-61
2023/05/07 01:43:15;;;;;;;27.65;18.48;;;10.10;99.90;;;;;;5075930;28;20576;-61
2023/05/07 01:45:42;;;;;;;30.20;20.55;;;10.10;99.90;;;;;;5075709;28;20215;-60
2023/05/07 01:48:10;;;;;;;26.20;18.60;;;10.10;99.90;;;;;;5075457;28;20225;-61
2023/05/07 01:50:38;;;;;;;23.35;18.25;;;10.20;99.90;;;;;;5075683;28;20670;-60
2023/05/07 01:53:05;;;;;;;23.75;17.33;;;10.20;99.90;;;;;;5075964;28;20219;-61
2023/05/07 01:55:32;;;;;;;21.15;16.85;;;10.20;99.90;;;;;;5075372;28;20203;-61
2023/05/07 01:58:00;;;;;;;24.00;17.63;;;10.10;99.90;;;;;;5075389;28;20225;-60
2023/05/07 02:00:27;;;;;;;24.05;17.02;;;10.20;99.90;;;;;;5075462;28;20208;-61
2023/05/07 02:02:54;;;;;;;20.55;15.88;;;10.20;99.90;;;;;;5075828;28;20287;-61
2023/05/07 02:05:21;;;;;;;28.50;15.77;;;10.20;99.90;;;;;;5076659;28;20696;-62
2023/05/07 02:07:48;;;;;;;23.50;16.40;;;10.20;99.90;;;;;;5076215;28;20221;-61
2023/05/07 02:10:14;;;;;;;19.35;14.85;;;10.20;99.90;;;;;;5076405;28;20211;-62
2023/05/07 02:12:42;;;;;;;22.63;16.20;;;10.20;99.90;;;;;;5076092;28;20201;-62
2023/05/07 02:15:11;;;;;;;24.37;15.90;;;10.10;99.90;;;;;;5075568;28;20455;-60
2023/05/07 02:17:40;;;;;;;18.80;13.57;;;10.10;99.90;;;;;;5075527;28;20471;-60
2023/05/07 02:20:13;;;;;;;21.30;13.75;;;10.10;99.90;;;;;;5075281;28;20570;-60
2023/05/07 02:22:39;;;;;;;17.17;13.57;;;10.10;99.90;;;;;;5075231;28;20198;-61
2023/05/07 02:25:06;;;;;;;15.45;13.02;;;10.10;99.90;;;;;;5075153;28;20197;-61
2023/05/07 02:27:33;;;;;;;16.27;12.38;;;10.10;99.90;;;;;;5074850;28;20201;-61
2023/05/07 02:30:00;;;;;;;18.60;12.75;;;10.10;99.90;;;;;;5075040;28;20216;-60
2023/05/07 02:32:28;;;;;;;15.85;12.32;;;10.10;99.90;;;;;;5074832;28;20205;-61
2023/05/07 02:34:55;;;;;;;14.85;11.63;;;10.10;99.90;;;;;;5075344;28;20213;-60
2023/05/07 02:37:21;;;;;;;15.23;11.65;;;10.20;99.90;;;;;;5074631;28;20224;-60
2023/05/07 02:39:48;;;;;;;16.45;10.18;;;10.20;99.90;;;;;;5074223;28;20739;-60
2023/05/07 02:42:15;;;;;;;12.60;10.57;;;10.20;99.90;;;;;;5074524;28;20212;-60
2023/05/07 02:44:41;;;;;;;13.68;10.52;;;10.20;99.90;;;;;;5074635;28;20208;-62
2023/05/07 02:47:09;;;;;;;12.40;9.75;;;10.20;99.90;;;;;;5074123;28;20197;-61
2023/05/07 02:49:37;;;;;;;15.07;10.20;;;10.20;99.90;;;;;;5073628;28;20235;-60
2023/05/07 02:52:04;;;;;;;11.25;9.15;;;10.20;99.90;;;;;;5073732;28;20213;-61
2023/05/07 02:54:31;;;;;;;13.50;9.80;;;10.10;99.90;;;;;;5074246;28;20205;-61
2023/05/07 02:56:58;;;;;;;11.57;9.50;;;10.10;99.90;;;;;;5074459;28;20221;-61
2023/05/07 02:59:26;;;;;;;15.10;11.07;;;10.10;99.90;;;;;;5074939;28;20644;-61
2023/05/07 03:01:52;;;;;;;14.68;10.00;;;10.10;99.90;;;;;;5074548;28;20443;-61
2023/05/07 03:04:20;;;;;;;12.45;10.73;;;10.10;99.90;;;;;;5074382;28;20212;-61
2023/05/07 03:06:48;;;;;;;12.77;11.00;;;10.10;99.90;;;;;;5074498;28;20201;-61
2023/05/07 03:09:14;;;;;;;11.83;9.90;;;10.10;99.90;;;;;;5073995;28;20231;-60
2023/05/07 03:11:41;;;;;;;13.57;9.98;;;10.10;99.90;;;;;;5074167;28;20817;-61
2023/05/07 03:14:08;;;;;;;13.80;10.17;;;10.10;99.90;;;;;;5074018;28;20205;-60
2023/05/07 03:16:35;;;;;;;12.70;10.38;;;10.10;99.90;;;;;;5073705;28;20446;-62
2023/05/07 03:19:02;;;;;;;13.10;10.45;;;10.10;99.90;;;;;;5073668;28;20221;-61
2023/05/07 03:21:28;;;;;;;12.27;9.02;;;10.20;99.90;;;;;;5073891;28;20212;-61
2023/05/07 03:23:57;;;;;;;12.35;9.52;;;10.10;99.90;;;;;;5073785;28;20204;-61
2023/05/07 03:26:23;;;;;;;11.65;10.15;;;10.10;99.90;;;;;;5073566;28;20197;-61
2023/05/07 03:28:50;;;;;;;13.70;10.07;;;10.10;99.90;;;;;;5073649;28;20744;-61
2023/05/07 03:31:17;;;;;;;11.88;9.73;;;10.10;99.90;;;;;;5075243;28;20205;-61
2023/05/07 03:33:52;;;;;;;14.63;8.77;;;10.00;99.90;;;;;;5074579;28;20211;-61
2023/05/07 03:36:18;;;;;;;11.85;9.30;;;10.00;99.90;;;;;;5076857;28;20619;-60
2023/05/07 03:38:45;;;;;;;11.18;9.63;;;10.00;99.90;;;;;;5075266;28;20225;-61
2023/05/07 03:41:13;;;;;;;11.43;8.45;;;9.90;99.90;;;;;;5073867;28;20674;-61
2023/05/07 03:43:40;;;;;;;14.73;9.60;;;9.90;99.90;;;;;;5073779;28;20209;-61
2023/05/07 03:46:07;;;;;;;13.80;9.20;;;9.90;99.90;;;;;;5074555;28;20578;-61
2023/05/07 03:48:34;;;;;;;12.52;9.85;;;9.90;99.90;;;;;;5074532;28;20225;-60
2023/05/07 03:51:01;;;;;;;10.65;8.73;;;9.90;99.90;;;;;;5074905;28;20209;-59
2023/05/07 03:53:27;;;;;;;12.50;10.10;;;9.90;99.90;;;;;;5076146;28;20224;-60
2023/05/07 03:55:54;;;;;;;11.45;9.10;;;9.90;99.90;;;;;;5074723;28;20197;-60
2023/05/07 03:58:22;;;;;;;11.88;7.88;;;9.90;99.90;;;;;;5074654;28;20229;-61
2023/05/07 04:00:49;;;;;;;10.35;8.52;;;9.90;99.90;;;;;;5075813;28;20212;-60
2023/05/07 04:03:16;;;;;;;17.25;9.70;;;9.90;99.90;;;;;;5073949;28;20200;-59
2023/05/07 04:05:43;;;;;;;9.40;7.90;;;9.90;99.90;;;;;;5075745;28;20197;-61
2023/05/07 04:11:40;;;;;;;10.80;8.90;;;9.90;99.90;;;;;;5092006;27;20583;-61
2023/05/07 04:14:07;;;;;;;11.02;8.82;;;9.90;99.90;;;;;;5091309;28;20204;-60
2023/05/07 04:16:35;;;;;;;12.13;8.48;;;9.90;99.90;;;;;;5091237;28;20203;-60
2023/05/07 04:19:02;;;;;;;11.93;9.43;;;9.90;99.90;;;;;;5090958;28;20227;-60
2023/05/07 04:21:29;;;;;;;11.43;9.48;;;9.90;99.90;;;;;;5090588;28;20693;-60
2023/05/07 04:23:57;;;;;;;12.38;9.05;;;9.90;99.90;;;;;;5090971;28;20208;-61
2023/05/07 04:26:24;;;;;;;12.00;9.95;;;9.90;99.90;;;;;;5090854;28;20199;-61
2023/05/07 04:28:52;;;;;;;10.57;9.10;;;9.90;99.90;;;;;;5090701;28;20224;-60
2023/05/07 04:31:19;;;;;;;13.15;9.50;;;9.90;99.90;;;;;;5091138;28;20564;-62
2023/05/07 04:33:46;;;;;;;11.20;8.43;;;9.90;99.90;;;;;;5090522;28;20674;-61
2023/05/07 04:36:13;;;;;;;12.57;10.00;;;10.00;99.90;;;;;;5090865;28;20204;-62
2023/05/07 04:38:39;;;;;;;11.23;9.35;;;10.00;99.90;;;;;;5091684;28;20224;-61
2023/05/07 04:41:07;;;;;;;12.35;9.10;;;10.00;99.90;;;;;;5097192;28;20200;-62
2023/05/07 04:43:34;;;;;;;9.85;8.57;;;10.00;99.90;;;;;;5095431;28;20200;-62
2023/05/07 04:46:02;;;;;;;13.23;9.63;;;10.00;99.90;;;;;;5093207;28;20211;-61
2023/05/07 04:48:29;;;;;;;12.05;9.43;;;10.00;99.90;;;;;;5119486;22;20220;-63
2023/05/07 04:50:56;;;;;;;15.65;10.63;;;10.00;99.90;;;;;;5069518;28;20282;-63
2023/05/07 04:53:23;;;;;;;12.52;10.05;;;10.00;99.90;;;;;;5069554;28;20197;-63
2023/05/07 04:55:55;;;;;;;12.90;10.52;;;10.00;99.90;;;;;;5069582;28;20232;-62
2023/05/07 04:58:22;;;;;;;11.02;9.68;;;10.00;99.90;;;;;;5069936;28;20283;-63
2023/05/07 05:00:49;;;;;;;15.13;10.82;;;10.00;99.90;;;;;;5069159;28;20197;-64
2023/05/07 05:03:17;;;;;;;13.30;10.88;;;10.00;99.90;;;;;;5069797;28;20197;-63
2023/05/07 05:05:44;;;;;;;11.45;9.20;;;10.00;99.90;;;;;;5070155;28;20209;-63
2023/05/07 05:08:11;;;;;;;13.30;9.82;;;10.00;99.90;;;;;;5069353;28;20201;-63
2023/05/07 05:10:38;;;;;;;14.60;10.27;;;10.00;99.90;;;;;;5069538;28;20227;-63
2023/05/07 05:13:04;;;;;;;11.93;9.25;;;10.00;99.90;;;;;;5069186;28;20213;-63
2023/05/07 05:15:31;;;;;;;11.77;9.68;;;10.00;99.90;;;;;;5069542;28;20237;-62
2023/05/07 05:17:58;;;;;;;12.00;9.52;;;10.00;99.90;;;;;;5068941;28;20201;-63
2023/05/07 05:20:26;;;;;;;13.07;9.60;;;10.00;99.90;;;;;;5069210;28;20207;-62
2023/05/07 05:22:53;;;;;;;10.48;8.00;;;10.10;99.90;;;;;;5056861;28;20208;-62
2023/05/07 05:25:20;;;;;;;10.20;8.55;;;10.10;99.90;;;;;;5055886;28;20194;-62
2023/05/07 05:27:46;;;;;;;10.30;8.20;;;10.10;99.90;;;;;;5055766;28;20205;-63
2023/05/07 05:30:14;;;;;;;9.57;8.30;;;10.20;99.90;;;;;;5055502;28;20226;-62
2023/05/07 05:32:40;;;;;;;9.00;8.00;;;10.20;99.90;;;;;;5055304;28;20668;-62
2023/05/07 05:35:08;;;;;;;10.30;9.03;;;10.20;99.90;;;;;;5055863;28;20202;-65
2023/05/07 05:37:36;;;;;;;14.57;9.73;;;10.30;99.90;;;;;;5055149;28;20455;-70
2023/05/07 05:40:04;;;;;;;11.10;9.23;;;10.30;99.90;;;;;;5056107;28;20460;-66
2023/05/07 05:42:31;;;;;;;9.35;8.35;;;10.30;99.90;;;;;;5055610;28;20494;-67
2023/05/07 05:44:57;;;;;;;10.03;8.43;;;10.30;99.90;;;;;;5055385;28;20213;-68
2023/05/07 05:47:24;;;;;;;9.97;8.53;;;10.30;99.90;;;;;;5055127;28;20448;-65
2023/05/07 05:49:51;;;;;;;12.20;9.27;;;10.30;99.90;;;;;;5055433;28;20831;-66
2023/05/07 05:52:17;;;;;;;10.83;8.13;;;10.40;99.90;;;;;;5055698;28;20444;-66
2023/05/07 05:54:45;;;;;;;11.00;8.13;;;10.50;99.90;;;;;;5055561;28;20443;-67
2023/05/07 05:57:12;;;;;;;9.17;7.90;;;10.50;99.90;;;;;;5055320;28;20447;-67
2023/05/07 05:59:39;;;;;;;9.70;7.53;;;10.50;99.90;;;;;;5054942;28;20977;-67
2023/05/07 06:02:06;;;;;;;9.30;8.30;;;10.50;99.90;;;;;;5055361;28;20436;-66
2023/05/07 06:04:32;;;;;;;10.57;9.30;;;10.50;99.90;;;;;;5055844;28;20471;-66
2023/05/07 06:06:59;;;;;;;10.67;7.93;;;10.50;99.90;;;;;;5055356;28;20845;-66
2023/05/07 06:09:26;;;;;;;9.03;8.00;;;10.50;99.90;;;;;;5055182;28;20521;-66
2023/05/07 06:11:54;;;;;;;8.03;7.10;;;10.50;99.90;;;;;;5055137;28;20848;-67
2023/05/07 06:14:21;;;;;;;9.60;8.40;;;10.60;99.90;;;;;;5054853;28;20421;-67
2023/05/07 06:16:47;;;;;;;9.73;8.33;;;10.60;99.90;;;;;;5054385;28;20934;-68
2023/05/07 06:19:14;;;;;;;9.50;8.17;;;10.60;99.90;;;;;;5054791;28;20463;-68
2023/05/07 06:21:41;;;;;;;8.80;7.70;;;10.60;99.90;;;;;;5054647;28;20499;-67
2023/05/07 06:24:08;;;;;;;9.33;7.90;;;10.70;99.90;;;;;;5054757;28;20456;-67
2023/05/07 06:26:35;;;;;;;9.50;8.07;;;10.70;99.90;;;;;;5054196;28;20444;-65
2023/05/07 06:29:03;;;;;;;9.97;8.57;;;10.70;99.90;;;;;;5054505;28;20826;-67
2023/05/07 06:31:31;;;;;;;9.57;7.57;;;10.80;99.90;;;;;;5053901;28;20993;-66
2023/05/07 06:33:58;;;;;;;9.10;7.80;;;10.80;99.90;;;;;;5053633;28;20494;-66
2023/05/07 06:36:26;;;;;;;9.47;8.47;;;10.90;99.90;;;;;;5059024;28;20445;-66
2023/05/07 06:38:52;;;;;;;9.07;7.60;;;10.90;99.90;;;;;;5056160;28;20464;-66
2023/05/07 06:41:20;;;;;;;8.27;6.37;;;11.10;99.90;;;;;;5054084;28;20447;-67
2023/05/07 06:43:47;;;;;;;8.57;7.77;;;11.20;99.90;;;;;;5054660;28;20869;-66
2023/05/07 06:46:15;;;;;;;7.60;6.83;;;11.40;99.90;;;;;;5054663;28;20447;-67
2023/05/07 06:48:42;;;;;;;7.87;6.93;;;11.60;99.90;;;;;;5053924;28;20472;-68
2023/05/07 06:51:08;;;;;;;7.93;7.13;;;11.70;99.90;;;;;;5054115;28;20487;-67
2023/05/07 06:53:36;;;;;;;7.73;6.10;;;11.80;99.90;;;;;;5054456;28;20448;-68
2023/05/07 06:56:03;;;;;;;8.57;7.67;;;11.80;99.90;;;;;;5054359;28;20440;-68
2023/05/07 06:58:29;;;;;;;8.10;7.30;;;11.80;99.90;;;;;;5053730;28;20464;-67
2023/05/07 07:00:56;;;;;;;8.87;7.40;;;11.70;99.90;;;;;;5054084;28;20467;-67
2023/05/07 07:03:24;;;;;;;8.47;7.60;;;11.70;99.90;;;;;;5053581;28;20973;-66
2023/05/07 07:05:53;;;;;;;8.80;7.90;;;11.70;99.90;;;;;;5053847;28;20509;-67
2023/05/07 07:08:21;;;;;;;9.03;8.10;;;11.80;99.90;;;;;;5053463;28;20468;-66
2023/05/07 07:10:47;;;;;;;9.83;8.83;;;11.80;99.90;;;;;;5054414;28;20480;-66
2023/05/07 07:13:14;;;;;;;9.40;8.50;;;11.80;99.90;;;;;;5054091;28;20455;-67
2023/05/07 07:15:41;;;;;;;10.37;9.40;;;11.80;99.90;;;;;;5053757;28;20457;-67
2023/05/07 07:18:08;;;;;;;10.10;9.10;;;11.90;99.90;;;;;;5054275;28;20437;-66
2023/05/07 07:20:36;;;;;;;11.87;9.90;;;12.00;99.90;;;;;;5054170;28;20449;-67
2023/05/07 07:23:03;;;;;;;11.80;10.60;;;12.10;99.90;;;;;;5053573;28;20455;-67
2023/05/07 07:25:29;;;;;;;11.57;10.37;;;12.20;99.90;;;;;;5053884;28;20453;-66
2023/05/07 07:27:56;;;;;;;11.03;9.40;;;12.30;99.90;;;;;;5054574;28;20448;-67
2023/05/07 07:30:23;;;;;;;11.80;10.50;;;12.40;99.90;;;;;;5053597;28;20527;-66
2023/05/07 07:32:50;;;;;;;11.23;10.13;;;12.50;99.90;;;;;;5053081;28;20450;-67
2023/05/07 07:35:16;;;;;;;10.30;9.30;;;12.60;99.90;;;;;;5053436;28;20445;-67
2023/05/07 07:37:45;;;;;;;11.70;10.40;;;12.60;99.90;;;;;;5053463;28;20448;-65
2023/05/07 07:40:13;;;;;;;11.70;10.50;;;12.80;99.90;;;;;;5053284;28;20464;-66
2023/05/07 07:42:40;;;;;;;10.40;9.33;;;12.90;99.90;;;;;;5052986;28;20848;-67
2023/05/07 07:45:08;;;;;;;11.60;9.60;;;13.10;99.80;;;;;;5052628;28;20448;-66
2023/05/07 07:47:34;;;;;;;11.10;9.97;;;13.20;99.20;;;;;;5052852;28;20532;-67
2023/05/07 07:50:01;;;;;;;9.50;8.40;;;13.30;99.10;;;;;;5052517;28;21012;-66
2023/05/07 07:52:28;;;;;;;10.20;9.20;;;13.60;98.00;;;;;;5052762;28;20483;-66
2023/05/07 07:54:56;;;;;;;11.87;10.77;;;13.60;96.80;;;;;;5052827;28;20444;-67
2023/05/07 07:57:23;;;;;;;10.70;9.70;;;13.60;96.00;;;;;;5053274;28;20821;-65
2023/05/07 07:59:50;;;;;;;10.67;9.30;;;13.60;95.60;;;;;;5052750;28;20471;-66
2023/05/07 08:02:17;;;;;;;9.50;8.57;;;13.60;95.60;;;;;;5052751;28;20459;-66
2023/05/07 08:04:44;;;;;;;10.43;9.23;;;13.70;95.30;;;;;;5052492;28;20440;-66
2023/05/07 08:07:11;;;;;;;9.83;8.83;;;13.90;95.00;;;;;;5053032;28;20455;-66
2023/05/07 08:09:38;;;;;;;9.20;8.30;;;14.00;93.50;;;;;;5052959;28;20474;-67
2023/05/07 08:12:07;;;;;;;9.37;8.47;;;14.00;92.90;;;;;;5052702;28;20479;-66
2023/05/07 08:14:34;;;;;;;9.80;8.80;;;14.00;92.70;;;;;;5052425;28;20942;-67
2023/05/07 08:17:01;;;;;;;10.40;9.40;;;14.00;92.70;;;;;;5052833;28;20447;-67
2023/05/07 08:19:28;;;;;;;10.20;7.80;;;14.10;92.20;;;;;;5052650;28;20475;-67
2023/05/07 08:21:55;;;;;;;7.90;7.30;;;14.20;91.50;;;;;;5053094;28;20456;-67
2023/05/07 08:24:22;;;;;;;11.27;9.87;;;14.30;91.50;;;;;;5052443;28;20939;-66
2023/05/07 08:26:49;;;;;;;8.87;8.07;;;14.40;91.20;;;;;;5052564;28;20451;-66
2023/05/07 08:29:17;;;;;;;10.00;9.10;;;14.40;90.40;;;;;;5052658;28;20523;-66
2023/05/07 08:31:44;;;;;;;10.10;9.10;;;14.40;90.40;;;;;;5052510;28;20476;-65
2023/05/07 08:34:11;;;;;;;10.27;8.40;;;14.40;90.90;;;;;;5052689;28;20531;-67
2023/05/07 08:36:37;;;;;;;9.23;8.03;;;14.50;90.70;;;;;;5052475;28;20921;-66
2023/05/07 08:39:04;;;;;;;9.17;8.37;;;14.50;90.20;;;;;;5052438;28;20471;-67
2023/05/07 08:41:31;;;;;;;9.73;8.90;;;14.40;89.90;;;;;;5052680;28;20444;-67
2023/05/07 08:44:00;;;;;;;8.70;7.87;;;14.30;90.70;;;;;;5052238;28;20459;-67
2023/05/07 08:46:32;;;;;;;8.90;8.00;;;14.30;90.90;;;;;;5052685;28;20444;-68
2023/05/07 08:48:59;;;;;;;9.97;7.93;;;14.30;90.60;;;;;;5052192;28;20852;-68
2023/05/07 08:51:27;;;;;;;8.43;7.70;;;14.30;90.30;;;;;;5052748;28;20570;-67
2023/05/07 08:53:53;;;;;;;10.17;9.17;;;14.10;90.50;;;;;;5052733;28;20447;-68
2023/05/07 08:56:20;;;;;;;10.20;8.67;;;14.10;90.70;;;;;;5053471;28;20463;-67
2023/05/07 08:58:48;;;;;;;9.67;8.80;;;14.20;90.80;;;;;;5056140;28;20981;-67
2023/05/07 09:01:16;;;;;;;9.00;8.07;;;14.30;90.50;;;;;;5056600;28;20448;-67
2023/05/07 09:03:46;;;;;;;8.40;7.57;;;14.50;90.00;;;;;;5057214;28;20447;-67
2023/05/07 09:06:13;;;;;;;9.70;8.80;;;14.60;89.20;;;;;;5057289;28;20458;-66
2023/05/07 09:08:40;;;;;;;8.03;7.33;;;14.70;88.00;;;;;;5056150;28;20551;-67
2023/05/07 09:11:07;;;;;;;8.67;7.97;;;14.60;87.70;;;;;;5055914;28;21007;-67
2023/05/07 09:13:34;;;;;;;9.20;8.40;;;14.60;88.10;;;;;;5056590;28;20439;-66
2023/05/07 09:16:11;;;;;;;8.63;7.83;;;14.60;87.60;;;;;;5056738;28;20494;-67
2023/05/07 09:18:42;;;;;;;10.60;8.63;;;14.60;88.00;;;;;;5056394;28;20468;-67
2023/05/07 09:21:12;;;;;;;8.80;7.90;;;14.50;88.40;;;;;;5056244;28;20957;-67
2023/05/07 09:23:39;;;;;;;9.40;8.50;;;14.50;88.20;;;;;;5055645;28;20944;-66
2023/05/07 09:26:11;;;;;;;8.83;8.03;;;14.60;88.50;;;;;;5056391;28;20444;-67
2023/05/07 09:28:40;;;;;;;8.93;8.10;;;14.70;87.10;;;;;;5056006;28;20498;-67
2023/05/07 09:31:07;;;;;;;9.20;8.07;;;14.60;86.80;;;;;;5056170;28;20452;-67
2023/05/07 09:33:33;;;;;;;9.60;8.37;;;14.50;87.00;;;;;;5056243;28;20817;-66
2023/05/07 09:36:03;;;;;;;9.40;8.50;;;14.30;87.80;;;;;;5056081;28;20451;-67
2023/05/07 09:38:32;;;;;;;8.90;8.03;;;14.30;88.90;;;;;;5056373;28;20468;-67
2023/05/07 09:41:06;;;;;;;10.90;8.43;;;14.30;89.10;;;;;;5056244;28;20501;-66
2023/05/07 09:43:34;;;;;;;9.10;8.23;;;14.40;88.70;;;;;;5056268;28;20444;-68
2023/05/07 09:46:04;;;;;;;9.40;8.50;;;14.40;87.40;;;;;;5056505;28;20440;-68
2023/05/07 09:48:31;;;;;;;12.20;8.60;;;14.50;88.00;;;;;;5055804;28;20474;-66
2023/05/07 09:51:01;;;;;;;9.97;8.97;;;14.50;86.90;;;;;;5055625;28;20470;-67
2023/05/07 09:53:30;;;;;;;9.27;8.47;;;14.60;85.40;;;;;;5055768;28;20821;-68
2023/05/07 09:55:59;;;;;;;9.73;8.60;;;14.40;85.70;;;;;;5055410;28;20472;-66
2023/05/07 09:58:27;;;;;;;9.30;8.40;;;14.40;86.70;;;;;;5055576;28;20864;-67
2023/05/07 10:00:54;;;;;;;8.77;7.87;;;14.40;87.20;;;;;;5055688;28;20451;-66
2023/05/07 10:03:22;;;;;;;8.53;7.60;;;14.30;87.10;;;;;;5055185;28;20439;-67
2023/05/07 10:05:51;;;;;;;10.03;9.03;;;14.20;87.80;;;;;;5055042;28;20443;-67
2023/05/07 10:08:19;;;;;;;9.70;8.80;;;14.30;88.30;;;;;;5055027;28;20436;-66
2023/05/07 10:10:47;;;;;;;9.17;8.17;;;14.40;87.50;;;;;;5054668;28;20851;-66
2023/05/07 10:13:15;;;;;;;10.57;9.47;;;14.50;87.40;;;;;;5055027;28;20839;-66
2023/05/07 10:15:42;;;;;;;10.13;8.93;;;14.50;86.20;;;;;;5055100;28;20961;-66
2023/05/07 10:18:09;;;;;;;9.93;8.93;;;14.60;86.30;;;;;;5055045;28;20456;-67
2023/05/07 10:20:37;;;;;;;9.50;8.60;;;14.70;85.90;;;;;;5054944;28;20449;-67
2023/05/07 10:23:06;;;;;;;9.80;8.90;;;14.70;85.10;;;;;;5055033;28;20440;-68
2023/05/07 10:25:33;;;;;;;9.50;8.60;;;14.80;84.30;;;;;;5054873;28;20498;-67
2023/05/07 10:28:05;;;;;;;10.00;9.00;;;14.90;83.80;;;;;;5054976;28;20451;-67
2023/05/07 10:30:46;;;;;;;12.43;8.70;;;15.00;83.00;;;;;;5056230;28;20429;-67
2023/05/07 10:33:16;;;;;;;11.50;9.70;;;15.00;82.20;;;;;;5054760;28;20463;-67
2023/05/07 10:35:44;;;;;;;10.30;9.30;;;15.10;82.00;;;;;;5056166;28;20455;-66
2023/05/07 10:38:11;;;;;;;9.53;8.63;;;15.10;81.30;;;;;;5055616;28;20527;-66
2023/05/07 10:40:38;;;;;;;10.67;9.67;;;15.10;80.90;;;;;;5055791;28;20448;-67
2023/05/07 10:43:06;;;;;;;9.40;8.50;;;15.20;81.00;;;;;;5055112;28;20930;-66
2023/05/07 10:45:34;;;;;;;9.30;7.87;;;15.30;80.10;;;;;;5055256;28;20459;-66
2023/05/07 10:48:12;;;;;;;9.53;8.63;;;15.20;79.80;;;;;;5055149;28;20775;-67
2023/05/07 10:50:39;;;;;;;9.23;8.33;;;15.30;79.50;;;;;;5054982;28;20428;-65
2023/05/07 10:53:25;;;;;;;10.27;7.80;;;15.20;78.90;;;;;;5093174;22;20498;-65
2023/05/07 10:56:13;;;;;;;8.60;7.80;;;15.20;79.20;;;;;;5074721;28;20485;-66
2023/05/07 10:58:39;;;;;;;8.63;7.83;;;15.20;79.20;;;;;;5074332;28;20447;-67
2023/05/07 11:01:07;;;;;;;8.97;8.17;;;15.20;78.40;;;;;;5074509;28;20443;-65
2023/05/07 11:03:34;;;;;;;8.90;8.07;;;15.20;78.20;;;;;;5074628;28;20459;-66
2023/05/07 11:06:12;;;;;;;8.10;7.40;;;15.20;77.70;;;;;;5075722;28;20824;-65
2023/05/07 11:08:55;;;;;;;8.13;7.43;;;15.30;78.00;;;;;;5074926;28;20444;-65
2023/05/07 11:11:45;;;;;;;9.37;8.23;;;15.40;76.90;;;;;;5075735;28;20447;-63
2023/05/07 11:14:12;;;;;;;8.47;7.70;;;15.60;77.40;;;;;;5075121;28;20424;-62
2023/05/07 11:16:42;;;;;;;7.50;6.80;;;15.80;75.60;;;;;;5075510;28;20489;-66
2023/05/07 11:19:09;;;;;;;7.97;7.17;;;15.90;74.50;;;;;;5074395;28;20442;-65
2023/05/07 11:21:37;;;;;;;7.57;6.87;;;16.00;73.70;;;;;;5073584;28;20553;-66
2023/05/07 11:24:05;;;;;;;7.20;6.50;;;16.10;73.20;;;;;;5073761;28;20450;-65
2023/05/07 11:26:43;;;;;;;7.20;6.50;;;16.10;72.80;;;;;;5073250;28;21020;-63
2023/05/07 11:29:12;;;;;;;8.30;7.33;;;16.10;72.90;;;;;;5073572;28;20419;-65
2023/05/07 11:31:40;;;;;;;8.13;7.30;;;16.00;71.80;;;;;;5073440;28;20818;-65
2023/05/07 11:34:08;;;;;;;8.00;7.30;;;16.00;71.90;;;;;;5073491;28;20436;-65
2023/05/07 11:36:35;;;;;;;7.20;6.60;;;16.10;71.10;;;;;;5074355;28;20450;-65
2023/05/07 11:39:02;;;;;;;7.30;6.70;;;16.10;71.00;;;;;;5074253;28;20439;-65
2023/05/07 11:41:35;;;;;;;7.13;6.53;;;16.40;70.50;;;;;;5073938;28;20799;-65
2023/05/07 11:44:02;;;;;;;9.67;7.03;;;16.70;69.20;;;;;;5073704;28;20451;-64
2023/05/07 11:46:29;;;;;;;7.17;6.47;;;16.80;67.30;;;;;;5073967;28;20944;-65
2023/05/07 11:48:58;;;;;;;7.80;7.00;;;16.80;66.70;;;;;;5074630;28;20446;-66
2023/05/07 11:51:26;;;;;;;6.83;6.23;;;16.90;66.50;;;;;;5073848;28;20454;-65
2023/05/07 11:53:54;;;;;;;7.23;6.57;;;16.80;65.70;;;;;;5073985;28;20459;-66
2023/05/07 11:56:21;;;;;;;7.73;7.13;;;16.70;65.70;;;;;;5072945;28;20443;-65
2023/05/07 11:58:50;;;;;;;6.93;6.33;;;16.50;66.00;;;;;;5072835;28;20550;-66
2023/05/07 12:01:18;;;;;;;7.63;6.87;;;16.40;66.10;;;;;;5072295;28;20933;-66
2023/05/07 12:03:46;;;;;;;6.37;5.87;;;16.30;66.70;;;;;;5072790;28;20808;-67
2023/05/07 12:06:16;;;;;;;6.70;6.10;;;16.40;66.80;;;;;;5072401;28;20949;-65
2023/05/07 12:08:44;;;;;;;6.77;6.07;;;16.50;66.30;;;;;;5072756;28;20454;-66
2023/05/07 12:11:16;;;;;;;7.80;7.07;;;16.60;65.80;;;;;;5072887;28;20443;-64
2023/05/07 12:13:43;;;;;;;6.60;6.00;;;16.60;65.50;;;;;;5073591;28;20512;-67
2023/05/07 12:16:10;;;;;;;7.63;6.93;;;16.60;65.40;;;;;;5073920;28;20447;-64
2023/05/07 12:18:37;;;;;;;7.13;6.50;;;16.50;65.20;;;;;;5072584;28;20450;-64
2023/05/07 12:21:06;;;;;;;7.40;6.70;;;16.40;65.30;;;;;;5073838;28;20450;-65
2023/05/07 12:23:35;;;;;;;6.57;5.97;;;16.40;66.20;;;;;;5073949;28;20486;-64
2023/05/07 12:26:02;;;;;;;8.30;6.70;;;16.40;65.20;;;;;;5074214;28;20444;-67
2023/05/07 12:28:30;;;;;;;8.37;6.30;;;16.50;65.00;;;;;;5073677;28;20451;-66
2023/05/07 12:30:57;;;;;;;5.93;5.43;;;16.50;64.60;;;;;;5072693;28;20486;-66
2023/05/07 12:33:26;;;;;;;5.90;5.30;;;16.40;65.00;;;;;;5077380;28;20828;-66
2023/05/07 12:35:55;;;;;;;6.00;5.40;;;16.30;65.40;;;;;;5078896;28;20482;-66
2023/05/07 12:38:22;;;;;;;6.27;5.67;;;16.30;65.80;;;;;;5078812;28;20450;-65
2023/05/07 12:40:51;;;;;;;6.80;6.20;;;16.40;66.30;;;;;;5077474;28;20447;-64
2023/05/07 12:43:19;;;;;;;6.50;6.00;;;16.50;65.20;;;;;;5077216;28;20455;-66
2023/05/07 12:45:47;;;;;;;6.63;5.83;;;16.60;65.20;;;;;;5077186;28;20937;-67